Time;durP1;ratioP1;P1;durP2;ratioP2;P2;SDS_P1;SDS_P2;PMS_P1;PMS_P2;Temp;Humidity;BMP_temperature;BMP_pressure;BME280_temperature;BME280_humidity;BME280_pressure;Samples;Min_cycle;Max_cycle;Signal;HPM_P1;HPM_P2
2020/12/17 00:00:26;;;;;;;;;;;;;;;18.38;68.87;101263.84;5071686;28;837;-44
2020/12/17 00:02:52;;;;;;;;;;;;;;;18.39;68.69;101260.25;5071966;28;1315;-39
2020/12/17 00:05:19;;;;;;;;;;;;;;;18.39;68.63;101262.06;5071617;28;2008;-48
2020/12/17 00:07:45;;;;;;;;;;;;;;;18.38;68.64;101258.56;5071797;28;1358;-48
2020/12/17 00:10:12;;;;;;;;;;;;;;;18.37;68.79;101259.50;5071395;28;797;-40
2020/12/17 00:12:40;;;;;;;;;;;;;;;18.38;68.78;101257.72;5071294;28;1346;-41
2020/12/17 00:15:10;;;;;;;;;;;;;;;18.39;68.67;101248.88;5053010;28;1311;-43
2020/12/17 00:17:47;;;;;;;;;;;;;;;18.38;68.71;101252.44;5071409;28;1330;-48
2020/12/17 00:20:14;;;;;;;;;;;;;;;18.37;68.48;101253.34;5070959;28;920;-43
2020/12/17 00:22:40;;;;;;;;;;;;;;;18.36;68.58;101249.03;5070962;28;1351;-42
2020/12/17 00:25:07;;;;;;;;;;;;;;;18.37;68.79;101248.94;5052648;28;1914;-44
2020/12/17 00:27:33;;;;;;;;;;;;;;;18.37;68.50;101256.84;5071003;28;1409;-42
2020/12/17 00:29:59;;;;;;;;;;;;;;;18.37;68.30;101250.72;5070941;28;1140;-41
2020/12/17 00:32:26;;;;;;;;;;;;;;;18.37;68.52;101245.44;5070761;28;1541;-42
2020/12/17 00:34:52;;;;;;;;;;;;;;;18.36;68.50;101236.66;5070590;28;797;-44
2020/12/17 00:37:18;;;;;;;;;;;;;;;18.35;68.42;101240.25;5052906;28;1723;-40
2020/12/17 00:39:45;;;;;;;;;;;;;;;18.36;68.50;101239.31;5069537;28;1389;-41
2020/12/17 00:42:11;;;;;;;;;;;;;;;18.35;68.49;101236.75;5070824;28;1275;-41
2020/12/17 00:44:37;;;;;;;;;;;;;;;18.37;68.41;101240.16;5070891;28;852;-50
2020/12/17 00:47:03;;;;;;;;;;;;;;;18.36;68.63;101246.38;5070866;28;1910;-43
2020/12/17 00:49:30;;;;;;;;;;;;;;;18.36;68.54;101241.13;5070925;28;805;-42
2020/12/17 00:51:57;;;;;;;;;;;;;;;18.36;68.53;101243.75;5070920;28;1268;-43
2020/12/17 00:54:24;;;;;;;;;;;;;;;18.35;68.39;101236.75;5070964;28;842;-44
2020/12/17 00:56:50;;;;;;;;;;;;;;;18.34;68.33;101230.63;5052789;28;1390;-37
2020/12/17 00:59:17;;;;;;;;;;;;;;;18.34;68.43;101228.00;5070760;28;837;-41
2020/12/17 01:01:44;;;;;;;;;;;;;;;18.34;68.41;101230.63;5052259;28;1338;-38
2020/12/17 01:04:10;;;;;;;;;;;;;;;18.34;68.31;101233.25;5070430;28;793;-39
2020/12/17 01:06:36;;;;;;;;;;;;;;;18.36;68.32;101227.94;5070199;28;1980;-38
2020/12/17 01:09:02;;;;;;;;;;;;;;;18.35;68.45;101228.84;5070404;28;1090;-40
2020/12/17 01:11:30;;;;;;;;;;;;;;;18.34;68.45;101230.63;5070127;28;1278;-38
2020/12/17 01:13:58;;;;;;;;;;;;;;;18.34;68.21;101225.34;5069632;28;765;-39
2020/12/17 01:16:24;;;;;;;;;;;;;;;18.33;68.47;101233.34;5069801;28;1232;-40
2020/12/17 01:18:50;;;;;;;;;;;;;;;18.33;68.38;101228.91;5069899;28;822;-39
2020/12/17 01:21:17;;;;;;;;;;;;;;;18.34;68.32;101219.22;5051629;28;1388;-39
2020/12/17 01:23:44;;;;;;;;;;;;;;;18.34;68.31;101228.00;5069851;28;990;-40
2020/12/17 01:26:10;;;;;;;;;;;;;;;18.33;68.31;101228.06;5069254;28;1926;-39
2020/12/17 01:28:37;;;;;;;;;;;;;;;18.32;68.43;101232.50;5068869;28;1868;-41
2020/12/17 01:31:13;;;;;;;;;;;;;;;18.33;68.41;101233.34;5069633;28;2238;-43
2020/12/17 01:33:40;;;;;;;;;;;;;;;18.31;68.24;101228.13;5069383;28;812;-42
2020/12/17 01:36:07;;;;;;;;;;;;;;;18.31;68.19;101227.28;5069798;28;1292;-42
2020/12/17 01:38:34;;;;;;;;;;;;;;;18.32;68.17;101232.50;5069560;28;798;-45
2020/12/17 01:41:00;;;;;;;;;;;;;;;18.30;68.36;101226.41;5051695;28;1520;-42
2020/12/17 01:43:26;;;;;;;;;;;;;;;18.31;68.26;101229.91;5069458;28;1762;-44
2020/12/17 01:45:53;;;;;;;;;;;;;;;18.30;68.27;101230.84;5069398;28;1914;-41
2020/12/17 01:48:20;;;;;;;;;;;;;;;18.31;68.27;101237.81;5069466;28;847;-41
2020/12/17 01:50:47;;;;;;;;;;;;;;;18.29;68.31;101237.91;5069039;28;1296;-40
2020/12/17 01:53:14;;;;;;;;;;;;;;;18.31;68.25;101235.19;5069417;28;858;-43
2020/12/17 01:55:40;;;;;;;;;;;;;;;18.30;68.20;101238.78;5069394;28;1050;-39
2020/12/17 01:58:10;;;;;;;;;;;;;;;18.29;68.19;101237.06;5069223;28;1256;-39
2020/12/17 02:00:37;;;;;;;;;;;;;;;18.29;68.33;101237.91;5051411;28;1230;-44
2020/12/17 02:03:04;;;;;;;;;;;;;;;18.30;68.18;101234.31;5050904;28;1947;-43
2020/12/17 02:05:31;;;;;;;;;;;;;;;18.30;68.18;101231.69;5069012;28;1988;-40
2020/12/17 02:07:59;;;;;;;;;;;;;;;18.28;68.26;101230.91;5068738;28;1221;-41
2020/12/17 02:10:25;;;;;;;;;;;;;;;18.29;68.26;101237.91;5067388;28;982;-39
2020/12/17 02:12:52;;;;;;;;;;;;;;;18.29;68.34;101240.53;5068532;28;2231;-40
2020/12/17 02:15:19;;;;;;;;;;;;;;;18.29;68.10;101240.53;5068674;28;824;-43
2020/12/17 02:17:46;;;;;;;;;;;;;;;18.30;68.07;101244.03;5050964;28;1318;-43
2020/12/17 02:20:12;;;;;;;;;;;;;;;18.28;68.20;101240.59;5068941;28;1025;-39
2020/12/17 02:22:39;;;;;;;;;;;;;;;18.29;68.31;101244.97;5069066;28;1346;-39
2020/12/17 02:25:06;;;;;;;;;;;;;;;18.28;68.16;101246.75;5068855;28;848;-38
2020/12/17 02:27:33;;;;;;;;;;;;;;;18.28;68.12;101235.31;5068474;28;1975;-39
2020/12/17 02:29:59;;;;;;;;;;;;;;;18.28;68.05;101237.97;5068548;28;1130;-39
2020/12/17 02:32:25;;;;;;;;;;;;;;;18.27;68.28;101238.91;5068830;28;1264;-39
2020/12/17 02:34:51;;;;;;;;;;;;;;;18.27;68.04;101234.47;5068534;28;841;-40
2020/12/17 02:37:18;;;;;;;;;;;;;;;18.28;68.16;101241.47;5068852;28;1296;-40
2020/12/17 02:39:45;;;;;;;;;;;;;;;18.26;68.02;101240.69;5068289;28;814;-40
2020/12/17 02:42:11;;;;;;;;;;;;;;;18.28;67.95;101245.88;5050118;28;1331;-39
2020/12/17 02:44:37;;;;;;;;;;;;;;;18.26;68.16;101238.06;5068231;28;794;-39
2020/12/17 02:47:03;;;;;;;;;;;;;;;18.26;68.02;101242.47;5068372;28;1971;-38
2020/12/17 02:49:30;;;;;;;;;;;;;;;18.27;67.97;101246.81;5068540;28;856;-40
2020/12/17 02:51:56;;;;;;;;;;;;;;;18.26;67.95;101253.88;5068456;28;1224;-39
2020/12/17 02:54:22;;;;;;;;;;;;;;;18.26;68.00;101261.78;5067901;28;828;-40
2020/12/17 02:56:48;;;;;;;;;;;;;;;18.26;67.98;101258.28;5049804;28;1502;-38
2020/12/17 02:59:15;;;;;;;;;;;;;;;18.27;67.90;101254.75;5068338;28;860;-39
2020/12/17 03:01:42;;;;;;;;;;;;;;;18.26;67.94;101250.38;5068302;28;1288;-39
2020/12/17 03:04:08;;;;;;;;;;;;;;;18.25;68.08;101257.44;5068061;28;1103;-39
2020/12/17 03:06:34;;;;;;;;;;;;;;;18.25;67.90;101261.84;5068250;28;1906;-38
2020/12/17 03:09:02;;;;;;;;;;;;;;;18.24;67.92;101249.59;5068418;28;793;-39
2020/12/17 03:11:30;;;;;;;;;;;;;;;18.25;67.97;101257.44;5068487;28;1276;-41
2020/12/17 03:13:56;;;;;;;;;;;;;;;18.26;67.96;101260.94;5068382;28;901;-42
2020/12/17 03:16:22;;;;;;;;;;;;;;;18.25;68.11;101259.22;5067615;28;1320;-42
2020/12/17 03:18:49;;;;;;;;;;;;;;;18.24;68.08;101262.78;5067785;28;868;-42
2020/12/17 03:21:15;;;;;;;;;;;;;;;18.26;67.62;101266.19;5067961;28;1248;-43
2020/12/17 03:23:41;;;;;;;;;;;;;;;18.24;67.97;101273.34;5067948;28;794;-42
2020/12/17 03:26:08;;;;;;;;;;;;;;;18.18;67.96;101260.44;5067824;28;1913;-44
2020/12/17 03:28:34;;;;;;;;;;;;;;;18.22;67.87;101268.13;5071543;28;889;-42
2020/12/17 03:31:00;;;;;;;;;;;;;;;18.23;67.93;101271.63;5071677;28;1287;-41
2020/12/17 03:33:27;;;;;;;;;;;;;;;18.21;67.80;101271.69;5071856;28;858;-40
2020/12/17 03:35:53;;;;;;;;;;;;;;;18.22;67.81;101272.53;5071652;28;1280;-45
2020/12/17 03:38:38;;;;;;;;;;;;;;;18.22;67.74;101272.53;5070104;28;706;-47
2020/12/17 03:41:04;;;;;;;;;;;;;;;18.22;67.78;101278.66;5071739;28;1284;-40
2020/12/17 03:43:31;;;;;;;;;;;;;;;18.22;67.64;101278.66;5071683;28;782;-42
2020/12/17 03:45:57;;;;;;;;;;;;;;;18.21;67.87;101269.03;5071557;28;1906;-39
2020/12/17 03:48:24;;;;;;;;;;;;;;;18.21;67.93;101270.84;5071688;28;788;-40
2020/12/17 03:50:50;;;;;;;;;;;;;;;18.21;67.63;101273.47;5071685;28;1280;-40
2020/12/17 03:53:17;;;;;;;;;;;;;;;18.20;67.81;101269.13;5071755;28;830;-39
2020/12/17 03:55:44;;;;;;;;;;;;;;;18.19;67.79;101276.19;5071522;28;1332;-42
2020/12/17 03:58:10;;;;;;;;;;;;;;;18.19;67.84;101278.81;5071386;28;1082;-40
2020/12/17 04:00:37;;;;;;;;;;;;;;;18.19;67.79;101273.53;5071290;28;1319;-42
2020/12/17 04:03:03;;;;;;;;;;;;;;;18.20;67.66;101277.03;5071472;28;1216;-40
2020/12/17 04:05:30;;;;;;;;;;;;;;;18.21;67.60;101276.94;5053240;28;1906;-42
2020/12/17 04:07:56;;;;;;;;;;;;;;;18.21;67.55;101281.41;5071125;28;1224;-40
2020/12/17 04:10:22;;;;;;;;;;;;;;;18.20;67.69;101280.53;5071115;28;837;-40
2020/12/17 04:12:48;;;;;;;;;;;;;;;18.19;67.80;101277.94;5071347;28;1267;-42
2020/12/17 04:15:15;;;;;;;;;;;;;;;18.19;67.73;101278.81;5071158;28;1189;-43
2020/12/17 04:17:41;;;;;;;;;;;;;;;18.19;67.68;101280.59;5071081;28;1288;-39
2020/12/17 04:20:07;;;;;;;;;;;;;;;18.19;67.76;101275.31;5070610;28;953;-39
2020/12/17 04:22:33;;;;;;;;;;;;;;;18.18;67.67;101271.81;5070883;28;1296;-39
2020/12/17 04:24:59;;;;;;;;;;;;;;;18.20;67.63;101279.66;5070956;28;1079;-40
2020/12/17 04:27:26;;;;;;;;;;;;;;;18.19;67.65;101281.44;5070679;28;1930;-41
2020/12/17 04:29:52;;;;;;;;;;;;;;;18.14;67.68;101279.97;5070895;28;845;-39
2020/12/17 04:32:18;;;;;;;;;;;;;;;18.18;67.68;101294.72;5070988;28;1355;-40
2020/12/17 04:34:45;;;;;;;;;;;;;;;18.18;67.65;101297.34;5070858;28;821;-39
2020/12/17 04:37:11;;;;;;;;;;;;;;;18.18;67.53;101303.47;5070857;28;1378;-41
2020/12/17 04:39:37;;;;;;;;;;;;;;;18.18;67.64;101303.47;5070206;28;783;-42
2020/12/17 04:42:05;;;;;;;;;;;;;;;18.17;67.52;101301.78;5070778;28;1340;-41
2020/12/17 04:44:32;;;;;;;;;;;;;;;18.18;67.60;101298.19;5070689;28;840;-45
2020/12/17 04:46:59;;;;;;;;;;;;;;;18.18;67.42;101306.09;5070642;28;1918;-44
2020/12/17 04:49:30;;;;;;;;;;;;;;;18.17;67.42;101307.03;5070653;28;804;-41
2020/12/17 04:51:56;;;;;;;;;;;;;;;18.18;67.54;101313.19;5070615;28;1303;-42
2020/12/17 04:54:24;;;;;;;;;;;;;;;18.16;67.59;101310.59;5070453;28;821;-43
2020/12/17 04:56:57;;;;;;;;;;;;;;;18.17;67.59;101314.09;5070689;28;1378;-45
2020/12/17 04:59:35;;;;;;;;;;;;;;;18.17;67.56;101319.38;5070648;28;881;-43
2020/12/17 05:02:05;;;;;;;;;;;;;;;18.16;67.43;101322.91;5070465;28;1323;-44
2020/12/17 05:04:33;;;;;;;;;;;;;;;18.17;67.23;101332.56;5070219;28;778;-41
2020/12/17 05:07:01;;;;;;;;;;;;;;;18.17;67.19;101335.19;5070168;28;2004;-40
2020/12/17 05:09:36;;;;;;;;;;;;;;;18.15;67.33;101331.78;5069966;28;1083;-41
2020/12/17 05:12:03;;;;;;;;;;;;;;;18.17;67.53;101330.78;5070105;28;1370;-41
2020/12/17 05:14:29;;;;;;;;;;;;;;;18.15;67.55;101331.78;5069940;28;829;-44
2020/12/17 05:16:56;;;;;;;;;;;;;;;18.15;67.47;101335.25;5069641;28;1304;-42
2020/12/17 05:19:26;;;;;;;;;;;;;;;18.15;67.61;101329.97;5069516;28;1083;-43
2020/12/17 05:21:52;;;;;;;;;;;;;;;18.15;67.42;101337.06;5069825;28;1362;-41
2020/12/17 05:24:20;;;;;;;;;;;;;;;18.15;67.27;101331.78;5069759;28;833;-42
2020/12/17 05:26:46;;;;;;;;;;;;;;;18.13;67.40;101331.81;5069446;28;1918;-37
2020/12/17 05:29:13;;;;;;;;;;;;;;;18.08;67.05;101327.69;5069780;28;815;-40
2020/12/17 05:31:39;;;;;;;;;;;;;;;18.14;66.86;101335.31;5069535;28;1200;-42
2020/12/17 05:34:05;;;;;;;;;;;;;;;18.15;67.58;101350.22;5069400;28;837;-39
2020/12/17 05:36:32;;;;;;;;;;;;;;;18.14;67.35;101345.88;5069602;28;1300;-38
2020/12/17 05:39:15;;;;;;;;;;;;;;;18.13;67.37;101355.56;5069501;28;801;-38
2020/12/17 05:41:42;;;;;;;;;;;;;;;18.14;67.39;101359.06;5069373;28;1401;-38
2020/12/17 05:44:10;;;;;;;;;;;;;;;18.14;67.62;101354.66;5069076;28;789;-39
2020/12/17 05:46:37;;;;;;;;;;;;;;;18.14;67.40;101356.41;5069240;28;1913;-41
2020/12/17 05:49:09;;;;;;;;;;;;;;;18.13;67.37;101360.84;5069050;28;817;-40
2020/12/17 05:51:35;;;;;;;;;;;;;;;18.13;67.34;101357.34;5068864;28;1400;-42
2020/12/17 05:54:02;;;;;;;;;;;;;;;18.14;67.42;101361.69;5069377;28;853;-43
2020/12/17 05:56:29;;;;;;;;;;;;;;;18.13;67.35;101363.47;5069245;28;1264;-42
2020/12/17 05:59:00;;;;;;;;;;;;;;;18.12;66.91;101361.75;5050840;28;1005;-43
2020/12/17 06:01:27;;;;;;;;;;;;;;;18.13;67.48;101362.59;5069064;28;1244;-43
2020/12/17 06:03:53;;;;;;;;;;;;;;;18.13;67.59;101366.09;5069153;28;790;-40
2020/12/17 06:06:20;;;;;;;;;;;;;;;18.12;67.50;101368.81;5068679;28;1980;-42
2020/12/17 06:08:49;;;;;;;;;;;;;;;18.11;67.38;101378.50;5068803;28;813;-47
2020/12/17 06:11:17;;;;;;;;;;;;;;;18.12;67.39;101376.72;5068682;28;1390;-46
2020/12/17 06:13:43;;;;;;;;;;;;;;;18.12;66.97;101382.00;5069183;28;920;-44
2020/12/17 06:16:10;;;;;;;;;;;;;;;18.11;67.35;101375.88;5068864;28;1296;-47
2020/12/17 06:18:38;;;;;;;;;;;;;;;18.12;67.28;101376.72;5068805;28;1144;-44
2020/12/17 06:21:08;;;;;;;;;;;;;;;18.12;67.57;101376.72;5068758;28;1268;-42
2020/12/17 06:23:36;;;;;;;;;;;;;;;18.11;67.47;101382.91;5069139;28;1233;-42
2020/12/17 06:26:06;;;;;;;;;;;;;;;18.11;67.68;101377.66;5068453;28;1973;-41
2020/12/17 06:28:36;;;;;;;;;;;;;;;18.12;67.59;101382.00;5050894;28;942;-45
2020/12/17 06:31:03;;;;;;;;;;;;;;;18.10;67.43;101384.69;5068670;28;1232;-40
2020/12/17 06:33:31;;;;;;;;;;;;;;;18.11;67.75;101391.69;5068675;28;1239;-41
2020/12/17 06:35:58;;;;;;;;;;;;;;;18.10;67.74;101384.69;5068348;28;1296;-40
2020/12/17 06:38:26;;;;;;;;;;;;;;;18.09;67.36;101393.53;5068196;28;1000;-45
2020/12/17 06:40:52;;;;;;;;;;;;;;;18.12;67.66;101390.75;5068515;28;1304;-44
2020/12/17 06:43:30;;;;;;;;;;;;;;;18.13;67.94;101400.38;5068414;28;1067;-42
2020/12/17 06:46:01;;;;;;;;;;;;;;;18.13;67.70;101402.16;5068090;28;1957;-42
2020/12/17 06:48:28;;;;;;;;;;;;;;;18.19;67.60;101396.59;5068229;28;1167;-41
2020/12/17 06:50:54;;;;;;;;;;;;;;;18.22;67.72;101399.13;5068422;28;1367;-44
2020/12/17 06:53:35;;;;;;;;;;;;;;;18.23;67.92;101403.47;5068438;28;845;-42
2020/12/17 06:56:01;;;;;;;;;;;;;;;18.23;68.15;101401.69;5068566;28;1260;-42
2020/12/17 06:58:28;;;;;;;;;;;;;;;18.23;68.34;101400.84;5068408;28;816;-42
2020/12/17 07:00:54;;;;;;;;;;;;;;;18.25;68.36;101397.19;5069084;28;1374;-40
2020/12/17 07:03:39;;;;;;;;;;;;;;;18.24;68.40;101405.19;5072939;28;804;-37
2020/12/17 07:06:14;;;;;;;;;;;;;;;18.20;68.51;101400.97;5072530;28;1910;-38
2020/12/17 07:08:41;;;;;;;;;;;;;;;18.19;68.65;101407.16;5072837;28;843;-39
2020/12/17 07:11:27;;;;;;;;;;;;;;;18.19;68.70;101407.16;5072523;28;1300;-39
2020/12/17 07:13:54;;;;;;;;;;;;;;;18.18;68.69;101405.47;5071958;28;1628;-39
2020/12/17 07:16:21;;;;;;;;;;;;;;;18.18;68.76;101408.09;5072708;28;1338;-41
2020/12/17 07:18:48;;;;;;;;;;;;;;;18.18;68.56;101408.09;5072429;28;898;-39
2020/12/17 07:21:14;;;;;;;;;;;;;;;18.18;68.71;101410.75;5072632;28;1359;-41
2020/12/17 07:23:41;;;;;;;;;;;;;;;18.17;68.74;101414.28;5072692;28;1063;-40
2020/12/17 07:26:20;;;;;;;;;;;;;;;18.24;68.09;101407.84;5043952;28;1903;-39
2020/12/17 07:28:52;;;;;;;;;;;;;;;18.24;67.97;101413.09;5052333;28;917;-40
2020/12/17 07:31:25;;;;;;;;;;;;;;;18.33;67.79;101412.69;5052642;28;1260;-41
2020/12/17 07:33:52;;;;;;;;;;;;;;;18.44;67.52;101420.97;5052645;28;1120;-41
2020/12/17 07:36:38;;;;;;;;;;;;;;;18.50;67.20;101418.94;5044726;28;1414;-39
2020/12/17 07:39:08;;;;;;;;;;;;;;;18.55;67.38;101429.28;5034065;28;1856;-41
2020/12/17 07:41:34;;;;;;;;;;;;;;;18.48;67.83;101433.13;5033166;28;1286;-40
2020/12/17 07:44:00;;;;;;;;;;;;;;;18.42;67.76;101433.38;5050481;28;847;-40
2020/12/17 07:46:33;;;;;;;;;;;;;;;18.36;67.00;101434.50;5051306;28;1919;-37
2020/12/17 07:49:02;;;;;;;;;;;;;;;18.34;67.68;101431.06;5051186;28;1143;-42
2020/12/17 07:51:29;;;;;;;;;;;;;;;18.47;67.50;101431.38;5051318;28;1363;-40
2020/12/17 07:53:56;;;;;;;;;;;;;;;18.47;67.21;101436.66;5051168;28;1074;-36
2020/12/17 07:56:26;;;;;;;;;;;;;;;18.43;67.13;101435.06;5051366;28;1248;-37
2020/12/17 07:58:53;;;;;;;;;;;;;;;18.38;67.77;101437.06;5051352;28;1052;-39
2020/12/17 08:01:19;;;;;;;;;;;;;;;18.36;67.95;101434.50;5032511;28;1269;-43
2020/12/17 08:03:47;;;;;;;;;;;;;;;18.34;67.97;101440.75;5051030;28;804;-43
2020/12/17 08:06:14;;;;;;;;;;;;;;;18.35;67.77;101447.75;5050854;28;1993;-35
2020/12/17 08:08:44;;;;;;;;;;;;;;;18.38;67.82;101452.91;5051170;28;860;-46
2020/12/17 08:11:28;;;;;;;;;;;;;;;18.34;67.88;101459.22;5050971;28;1153;-47
2020/12/17 08:14:07;;;;;;;;;;;;;;;18.95;72.65;101455.56;5050465;28;1251;-56
2020/12/17 08:16:34;;;;;;;;;;;;;;;19.00;64.73;101452.69;5050922;28;1347;-47
2020/12/17 08:19:01;;;;;;;;;;;;;;;18.72;64.79;101457.56;5050889;28;1090;-45
2020/12/17 08:21:28;;;;;;;;;;;;;;;18.41;65.79;101466.81;5050527;28;1272;-51
2020/12/17 08:23:55;;;;;;;;;;;;;;;18.36;66.27;101468.78;5032264;28;1294;-48
2020/12/17 08:26:26;;;;;;;;;;;;;;;18.37;66.25;101467.00;5050324;28;2098;-50
2020/12/17 08:28:53;;;;;;;;;;;;;;;18.34;65.33;101468.00;5050632;28;1571;-50
2020/12/17 08:31:21;;;;;;;;;;;;;;;18.30;66.04;101471.69;5050371;28;1355;-48
2020/12/17 08:33:52;;;;;;;;;;;;;;;18.28;66.42;101475.31;5050490;28;852;-53
2020/12/17 08:36:21;;;;;;;;;;;;;;;18.28;66.25;101478.81;5050326;28;1575;-50
2020/12/17 08:38:52;;;;;;;;;;;;;;;18.28;66.28;101477.97;5030494;28;799;-54
2020/12/17 08:41:20;;;;;;;;;;;;;;;18.25;66.54;101481.59;5046706;28;1565;-51
2020/12/17 08:44:00;;;;;;;;;;;;;;;18.25;66.50;101480.72;5050229;28;837;-55
2020/12/17 08:46:27;;;;;;;;;;;;;;;18.27;66.28;101484.19;5050139;28;1911;-62
2020/12/17 08:48:54;;;;;;;;;;;;;;;18.26;66.15;101482.44;5050050;28;1039;-61
2020/12/17 08:51:21;;;;;;;;;;;;;;;18.29;66.38;101482.31;5049054;28;1965;-61
2020/12/17 08:53:48;;;;;;;;;;;;;;;18.31;66.12;101485.75;5058051;28;1316;-55
2020/12/17 08:56:14;;;;;;;;;;;;;;;18.27;66.33;101492.09;5025521;28;1277;-58
2020/12/17 08:58:44;;;;;;;;;;;;;;;18.30;66.16;101491.97;5048411;28;763;-60
2020/12/17 09:01:17;;;;;;;;;;;;;;;18.30;66.21;101498.06;5061734;28;1324;-64
2020/12/17 09:03:44;;;;;;;;;;;;;;;18.32;66.43;101498.00;5068112;28;1063;-59
2020/12/17 09:06:11;;;;;;;;;;;;;;;18.30;66.12;101505.97;5068206;28;1985;-59
2020/12/17 09:08:38;;;;;;;;;;;;;;;18.26;66.48;101501.78;5063981;28;1269;-61
2020/12/17 09:11:04;;;;;;;;;;;;;;;18.30;66.39;101513.06;5048253;28;1355;-61
2020/12/17 09:13:30;;;;;;;;;;;;;;;18.26;66.36;101517.59;5048968;28;775;-63
2020/12/17 09:16:01;;;;;;;;;;;;;;;18.25;66.26;101529.06;5048258;28;1331;-55
2020/12/17 09:18:29;;;;;;;;;;;;;;;18.28;66.22;101534.22;5048312;28;787;-61
2020/12/17 09:21:09;;;;;;;;;;;;;;;18.49;65.61;101524.53;5048165;28;1272;-58
2020/12/17 09:23:35;;;;;;;;;;;;;;;18.47;65.41;101540.41;5030078;28;1228;-56
2020/12/17 09:26:14;;;;;;;;;;;;;;;18.58;65.20;101541.75;5019566;28;1935;-58
2020/12/17 09:29:07;;;;;;;;;;;;;;;18.42;65.42;101538.91;5067875;28;973;-56
2020/12/17 09:31:34;;;;;;;;;;;;;;;18.43;65.13;101545.88;5065917;28;1339;-57
2020/12/17 09:34:01;;;;;;;;;;;;;;;18.30;65.27;101550.81;5068016;28;750;-56
2020/12/17 09:36:28;;;;;;;;;;;;;;;18.51;65.65;101555.19;5050080;28;1492;-50
2020/12/17 09:39:04;;;;;;;;;;;;;;;18.59;66.65;101554.03;5060699;28;1066;-45
2020/12/17 09:41:31;;;;;;;;;;;;;;;18.53;67.67;101561.28;5047849;28;1384;-49
2020/12/17 09:43:58;;;;;;;;;;;;;;;18.44;68.33;101564.28;5047957;28;845;-54
2020/12/17 09:46:24;;;;;;;;;;;;;;;18.39;68.21;101565.41;5048002;28;1918;-52
2020/12/17 09:48:50;;;;;;;;;;;;;;;18.33;68.86;101563.03;5047984;28;848;-55
2020/12/17 09:51:20;;;;;;;;;;;;;;;18.25;69.08;101567.75;5047957;28;1398;-49
2020/12/17 09:53:48;;;;;;;;;;;;;;;18.22;69.31;101562.63;5047515;28;766;-51
2020/12/17 09:56:17;;;;;;;;;;;;;;;18.21;69.60;101561.75;5047373;28;1351;-53
2020/12/17 09:58:44;;;;;;;;;;;;;;;18.20;69.91;101561.81;5029176;28;1243;-48
2020/12/17 10:01:11;;;;;;;;;;;;;;;18.19;70.10;101568.00;5047373;28;1273;-48
2020/12/17 10:03:37;;;;;;;;;;;;;;;18.16;69.87;101561.09;5047156;28;857;-47
2020/12/17 10:06:04;;;;;;;;;;;;;;;18.14;70.21;101560.31;5047516;28;1910;-50
2020/12/17 10:08:30;;;;;;;;;;;;;;;18.12;70.08;101564.78;5047464;28;1028;-54
2020/12/17 10:10:57;;;;;;;;;;;;;;;18.10;70.24;101558.72;5047208;28;1359;-50
2020/12/17 10:13:24;;;;;;;;;;;;;;;18.12;70.28;101563.94;5047471;28;814;-54
2020/12/17 10:15:50;;;;;;;;;;;;;;;18.10;70.08;101563.13;5047510;28;1260;-48
2020/12/17 10:18:16;;;;;;;;;;;;;;;18.08;70.11;101565.84;5047259;28;1095;-49
2020/12/17 10:20:42;;;;;;;;;;;;;;;18.08;70.30;101567.63;5046583;28;1166;-54
2020/12/17 10:23:09;;;;;;;;;;;;;;;18.06;70.27;101567.66;5047196;28;1331;-49
2020/12/17 10:25:35;;;;;;;;;;;;;;;18.07;70.12;101565.88;5047056;28;1061;-51
2020/12/17 10:28:01;;;;;;;;;;;;;;;18.05;70.21;101570.38;5046847;28;1925;-50
2020/12/17 10:30:28;;;;;;;;;;;;;;;18.06;69.94;101572.06;5046955;28;1055;-49
2020/12/17 10:32:55;;;;;;;;;;;;;;;18.03;69.88;101567.78;5046532;28;1173;-49
2020/12/17 10:35:22;;;;;;;;;;;;;;;18.02;69.86;101572.19;5046830;28;829;-46
2020/12/17 10:37:48;;;;;;;;;;;;;;;18.01;70.07;101574.91;5046741;28;1217;-47
2020/12/17 10:40:14;;;;;;;;;;;;;;;18.01;69.90;101562.59;5047310;28;821;-49
2020/12/17 10:42:56;;;;;;;;;;;;;;;18.00;69.76;101570.53;5028410;28;1434;-50
2020/12/17 10:45:22;;;;;;;;;;;;;;;18.00;69.68;101567.91;5046330;28;798;-52
2020/12/17 10:47:49;;;;;;;;;;;;;;;18.00;69.67;101562.63;5026715;28;1910;-52
2020/12/17 10:50:15;;;;;;;;;;;;;;;17.99;69.65;101567.03;5027224;28;912;-51
2020/12/17 10:52:43;;;;;;;;;;;;;;;17.98;69.74;101568.00;5026996;28;1387;-47
2020/12/17 10:55:10;;;;;;;;;;;;;;;17.98;69.52;101567.13;5026470;28;836;-52
2020/12/17 10:57:36;;;;;;;;;;;;;;;17.98;69.39;101570.63;5026854;28;1351;-47
2020/12/17 11:00:04;;;;;;;;;;;;;;;17.98;69.30;101565.34;5033164;28;1309;-47
2020/12/17 11:02:30;;;;;;;;;;;;;;;17.96;69.23;101566.34;5046698;28;1268;-52
2020/12/17 11:04:56;;;;;;;;;;;;;;;17.96;69.40;101567.19;5046739;28;809;-51
2020/12/17 11:07:22;;;;;;;;;;;;;;;17.95;69.39;101562.84;5046710;28;1985;-52
2020/12/17 11:09:57;;;;;;;;;;;;;;;17.98;69.19;101557.44;5022790;28;1521;-47
2020/12/17 11:12:23;;;;;;;;;;;;;;;18.06;69.51;101551.84;5024218;28;1372;-51
2020/12/17 11:14:49;;;;;;;;;;;;;;;18.06;69.63;101550.97;5024251;28;1047;-49
2020/12/17 11:17:16;;;;;;;;;;;;;;;18.09;69.54;101558.78;5027018;28;1308;-51
2020/12/17 11:19:42;;;;;;;;;;;;;;;18.06;69.65;101541.28;5027580;28;870;-52
2020/12/17 11:22:09;;;;;;;;;;;;;;;18.16;69.34;101552.31;5009258;28;1343;-51
2020/12/17 11:24:35;;;;;;;;;;;;;;;18.20;69.27;101552.16;5027800;28;1161;-51
2020/12/17 11:27:01;;;;;;;;;;;;;;;18.18;69.32;101545.22;5027207;28;1915;-52
2020/12/17 11:29:28;;;;;;;;;;;;;;;18.31;68.82;101543.75;5027343;28;1572;-54
2020/12/17 11:31:54;;;;;;;;;;;;;;;18.35;68.83;101542.72;5026126;28;1354;-56
2020/12/17 11:34:21;;;;;;;;;;;;;;;18.39;68.63;101537.22;5027316;28;802;-55
2020/12/17 11:36:47;;;;;;;;;;;;;;;18.27;69.13;101544.84;5025970;28;1245;-55
2020/12/17 11:39:14;;;;;;;;;;;;;;;18.24;69.55;101544.97;5027391;28;1063;-53
2020/12/17 11:41:41;;;;;;;;;;;;;;;18.38;68.98;101539.94;5027769;28;1264;-57
2020/12/17 11:44:08;;;;;;;;;;;;;;;18.36;69.67;101544.44;5027592;28;861;-58
2020/12/17 11:46:34;;;;;;;;;;;;;;;18.40;69.64;101549.50;5009570;28;1906;-55
2020/12/17 11:49:00;;;;;;;;;;;;;;;18.48;68.96;101552.66;5029612;28;799;-50
2020/12/17 11:51:26;;;;;;;;;;;;;;;18.48;68.77;101546.56;5031161;28;1292;-57
2020/12/17 11:53:53;;;;;;;;;;;;;;;18.50;68.99;101556.16;5031179;28;866;-49
2020/12/17 11:56:19;;;;;;;;;;;;;;;18.51;69.04;101543.81;5031233;28;1375;-52
2020/12/17 11:58:46;;;;;;;;;;;;;;;18.53;69.21;101547.22;5031152;28;782;-53
2020/12/17 12:01:12;;;;;;;;;;;;;;;18.56;69.12;101547.09;5031416;28;1354;-51
2020/12/17 12:03:40;;;;;;;;;;;;;;;18.62;68.92;101536.28;5030962;28;783;-53
2020/12/17 12:06:06;;;;;;;;;;;;;;;18.79;68.81;101533.72;5030763;28;1245;-56
2020/12/17 12:08:32;;;;;;;;;;;;;;;18.89;68.83;101528.91;5030787;28;1915;-54
2020/12/17 12:10:59;;;;;;;;;;;;;;;18.99;68.60;101536.34;5030783;28;1296;-50
2020/12/17 12:13:25;;;;;;;;;;;;;;;19.21;68.12;101527.44;5030753;28;841;-53
2020/12/17 12:15:51;;;;;;;;;;;;;;;19.26;68.04;101521.00;5030493;28;1221;-52
2020/12/17 12:18:17;;;;;;;;;;;;;;;19.36;68.04;101524.09;5030672;28;1010;-52
2020/12/17 12:20:45;;;;;;;;;;;;;;;19.46;67.57;101512.16;5030705;28;1086;-48
2020/12/17 12:23:15;;;;;;;;;;;;;;;19.52;67.40;101519.78;5031163;28;1044;-48
2020/12/17 12:25:42;;;;;;;;;;;;;;;19.64;67.56;101514.78;5029906;28;1593;-57
2020/12/17 12:28:10;;;;;;;;;;;;;;;19.63;67.18;101513.09;5030406;28;1930;-56
2020/12/17 12:30:37;;;;;;;;;;;;;;;19.65;67.15;101515.63;5030479;28;1425;-56
2020/12/17 12:33:03;;;;;;;;;;;;;;;19.66;67.07;101522.66;5030739;28;1344;-55
2020/12/17 12:35:29;;;;;;;;;;;;;;;19.69;67.03;101514.56;5030161;28;1121;-58
2020/12/17 12:37:55;;;;;;;;;;;;;;;19.69;67.15;101516.34;5029908;28;1432;-47
2020/12/17 12:40:22;;;;;;;;;;;;;;;19.71;67.17;101522.41;5029789;28;996;-51
2020/12/17 12:42:48;;;;;;;;;;;;;;;19.67;67.15;101519.03;5030309;28;1237;-57
2020/12/17 12:45:14;;;;;;;;;;;;;;;19.71;67.39;101510.06;5029984;28;1170;-53
2020/12/17 12:47:41;;;;;;;;;;;;;;;19.59;67.61;101508.88;5029477;28;1911;-58
2020/12/17 12:50:07;;;;;;;;;;;;;;;19.67;67.66;101503.19;5011794;28;835;-58
2020/12/17 12:52:33;;;;;;;;;;;;;;;19.74;67.54;101503.75;5029956;28;1268;-54